Loyal, WI

6:47 AM CST on December 09, 2016 (GMT -0600)
Marshfield Municipal | | Change Station

Elev 1276 ft 44.64 °N, 90.19 °W | Updated 53 minutes ago

Partly Cloudy
Partly Cloudy
11 °F
Feels Like -3 °F
N
12
Wind Variable Wind from NW

Today
High -- | Low -- °F
--% Chance of Precip.
Yesterday
High -- | Low -- °F
Precip. -- in
Pressure 30.51 in
Visibility 10.0 miles
Clouds Clear
Windchill -3 °F
Dew Point 7 °F
Humidity 84%
Rainfall 0.00 in
Snow Depth Not available.
7:27 AM 4:21 PM
Waxing Gibbous, 73% visible
METAR KMFI 091154Z AUTO 31010KT 10SM CLR M12/M14 A3042 RMK AO2 SLP329 T11171139 11078 21117 51009 $
Pressure 30.51 in
Visibility 10.0 miles
Clouds Clear
Windchill -3 °F
Dew Point 7 °F
Humidity 84%
Rainfall 0.00 in
Snow Depth Not available.
7:27 AM 4:21 PM
Waxing Gibbous, 73% visible
METAR KMFI 091154Z AUTO 31010KT 10SM CLR M12/M14 A3042 RMK AO2 SLP329 T11171139 11078 21117 51009 $

10-Day Weather Forecast

Almanac

Astronomy

Dec. 09, 2016 Rise Set
Actual Time
Civil Twilight
Nautical Twilight
Astronomical Twilight
Moon
Length of Visible Light
Length of Day
Tomorrow will be .
, % of the Moon is Illuminated

Today's Extremes

State Highs State Lows

Community

WunderPhotos

Upload Photos

1,956,407 photos uploaded!

WunderBlog® & News

Nearby

Air Quality

  Air Quality AQ Index Pollutant
Not available.

Snow Depth

Station Depth Elevation

Earthquake Activity

City Distance Mag. Time & Date
Minimum magnitude displayed is 2.5.

Coastal Water Temperatures

Place Temperature

Stations

Nearby Weather Stations

Station Location Temp. Windchill Dew Point Humidity Wind Precip. Elev Updated Type
                   

Watches & Warnings

There are currently no watches in effect.